Terminal Aerodrome Forecast
Issued by NWS

Current Version | Previous Version | Text Only | Print | Product List | Glossary On
Versions: 1 2 3 4 5 6 7 8 9 10 11 12 13 14 15 16 17 18 19
249
FTUS46 KMFR 270533
TAFOTH
TAF
KOTH 270533Z 2706/2806 20010KT P6SM -SHRA BKN020 OVC040
     FM270900 21011KT P6SM -SHRA BKN030 OVC050
     FM271600 23008KT P6SM -SHRA SCT025 OVC040
     FM271900 28010KT P6SM VCSH BKN050
     FM280300 15003KT P6SM SCT030 BKN100=

USA.gov is the U.S. government's official web portal to all federal, state and local government web resources and services.